Hersey, Maine
Current Conditions -  °F | °C
As of 4:53 AM on Wednesday 26 Nov 2014 (Local Time) from KHUL Reporting Station
Clear Clear  
Wind Chill: 32°   Ceiling: Unl
Heat Index: 38°   Visibility: 10mi
Dew Point: 20°   Wind: 8mph
Humidity: 48%   Direction: 260°W
Pressure: 30.1"   Gusts: 17mph
Location:  46.2367°N, 68.3001°W
Report Text: KHUL 260953Z AUTO 26007G15KT 10SM CLR 03/M07 A3010 RMK AO2 SLP199 T00331067
Loading
Personal Weather Stations






























Interactive Weather Map New forecast layout! Learn more

10-Day Weather Forecast

Advertisements
Track Severe Weather on mobile